createdAt,value
2023-02-03T00:01:56.404Z,1029.15
2023-02-03T00:03:56.349Z,1029.15
2023-02-03T00:05:56.351Z,1029.15
2023-02-03T00:07:56.386Z,1029.10
2023-02-03T00:09:56.353Z,1029.06
2023-02-03T00:11:56.447Z,1029.06
2023-02-03T00:13:56.348Z,1028.99
2023-02-03T00:15:56.400Z,1028.92
2023-02-03T00:17:56.386Z,1028.98
2023-02-03T00:19:56.381Z,1029.08
2023-02-03T00:21:56.385Z,1029.08
2023-02-03T00:23:56.352Z,1029.07
2023-02-03T00:25:56.456Z,1029.08
2023-02-03T00:27:56.408Z,1029.10
2023-02-03T00:29:56.382Z,1029.13
2023-02-03T00:31:56.548Z,1029.13
2023-02-03T00:33:56.375Z,1029.11
2023-02-03T00:35:56.357Z,1029.10
2023-02-03T00:37:56.434Z,1029.14
2023-02-03T00:39:56.397Z,1029.14
2023-02-03T00:41:56.367Z,1029.19
2023-02-03T00:43:56.366Z,1029.30
2023-02-03T00:45:56.506Z,1029.30
2023-02-03T00:47:56.391Z,1029.38
2023-02-03T00:49:56.386Z,1029.38
2023-02-03T00:51:56.363Z,1029.36
2023-02-03T00:53:56.416Z,1029.31
2023-02-03T00:55:56.388Z,1029.32
2023-02-03T00:57:56.386Z,1029.37
2023-02-03T00:59:56.363Z,1029.37
2023-02-03T01:01:56.413Z,1029.37
2023-02-03T01:03:56.424Z,1029.35
2023-02-03T01:05:56.414Z,1029.30
2023-02-03T01:07:56.449Z,1029.30
2023-02-03T01:09:56.405Z,1029.22
2023-02-03T01:11:56.379Z,1029.29
2023-02-03T01:13:56.479Z,1029.28
2023-02-03T01:15:56.421Z,1029.21
2023-02-03T01:17:56.411Z,1029.21
2023-02-03T01:19:56.409Z,1029.11
2023-02-03T01:21:56.413Z,1028.98
2023-02-03T01:23:56.405Z,1028.84
2023-02-03T01:25:56.413Z,1028.84
2023-02-03T01:27:56.409Z,1028.84
2023-02-03T01:29:56.387Z,1028.83
2023-02-03T01:31:56.509Z,1028.86
2023-02-03T01:34:26.393Z,1028.92
2023-02-03T01:36:26.432Z,1028.86
2023-02-03T01:38:26.431Z,1028.95
2023-02-03T01:40:26.643Z,1028.95
2023-02-03T01:42:26.397Z,1028.73
2023-02-03T01:44:26.419Z,1028.68
2023-02-03T01:46:26.478Z,1028.70
2023-02-03T01:48:26.457Z,1028.67
2023-02-03T01:50:26.671Z,1028.67
2023-02-03T01:52:26.434Z,1028.64
2023-02-03T01:54:26.423Z,1028.67
2023-02-03T01:56:26.511Z,1028.58
2023-02-03T01:58:26.439Z,1028.46
2023-02-03T02:00:26.725Z,1028.46
2023-02-03T02:02:26.467Z,1028.55
2023-02-03T02:04:26.443Z,1028.63
2023-02-03T02:06:26.458Z,1028.63
2023-02-03T02:08:26.455Z,1028.63
2023-02-03T02:10:26.778Z,1028.58
2023-02-03T02:12:26.436Z,1028.55
2023-02-03T02:14:26.451Z,1028.44
2023-02-03T02:16:26.435Z,1028.45
2023-02-03T02:18:26.440Z,1028.45
2023-02-03T02:20:26.740Z,1028.33
2023-02-03T02:22:26.431Z,1028.24
2023-02-03T02:24:26.472Z,1028.28
2023-02-03T02:26:26.456Z,1028.23
2023-02-03T02:28:26.440Z,1028.23
2023-02-03T02:30:26.808Z,1028.08
2023-02-03T02:32:26.460Z,1028.03
2023-02-03T02:34:26.461Z,1028.01
2023-02-03T02:36:26.463Z,1028.01
2023-02-03T02:38:26.420Z,1027.98
2023-02-03T02:40:26.748Z,1027.98
2023-02-03T02:42:26.525Z,1027.93
2023-02-03T02:44:26.456Z,1027.83
2023-02-03T02:46:26.511Z,1027.83
2023-02-03T02:48:26.444Z,1027.83
2023-02-03T02:50:26.762Z,1027.83
2023-02-03T02:52:26.421Z,1027.90
2023-02-03T02:54:26.416Z,1028.03
2023-02-03T02:56:26.522Z,1028.03
2023-02-03T02:58:26.427Z,1028.01
2023-02-03T03:00:26.663Z,1028.09
2023-02-03T03:02:26.473Z,1028.19
2023-02-03T03:04:26.539Z,1028.19
2023-02-03T03:06:26.448Z,1028.19
2023-02-03T03:08:26.437Z,1028.19
2023-02-03T03:10:27.127Z,1028.22
2023-02-03T03:12:26.432Z,1028.19
2023-02-03T03:14:26.447Z,1028.19
2023-02-03T03:16:26.484Z,1028.10
2023-02-03T03:18:26.480Z,1028.03
2023-02-03T03:20:26.855Z,1028.03
2023-02-03T03:22:57.472Z,1028.08
2023-02-03T03:24:56.471Z,1028.08
2023-02-03T03:26:56.472Z,1028.03
2023-02-03T03:28:56.487Z,1028.03
2023-02-03T03:30:56.590Z,1028.06
2023-02-03T03:32:56.465Z,1028.08
2023-02-03T03:34:56.468Z,1028.08
2023-02-03T03:36:56.504Z,1028.14
2023-02-03T03:38:56.544Z,1028.11
2023-02-03T03:40:56.526Z,1028.09
2023-02-03T03:42:56.460Z,1028.09
2023-02-03T03:44:56.466Z,1028.09
2023-02-03T03:46:56.491Z,1028.10
2023-02-03T03:48:56.486Z,1028.17
2023-02-03T03:50:56.533Z,1028.24
2023-02-03T03:52:56.512Z,1028.24
2023-02-03T03:54:56.458Z,1028.34
2023-02-03T03:56:56.468Z,1028.42
2023-02-03T03:58:56.618Z,1028.31
2023-02-03T04:00:56.503Z,1028.45
2023-02-03T04:02:56.557Z,1028.45
2023-02-03T04:04:56.507Z,1028.65
2023-02-03T04:06:56.525Z,1028.64
2023-02-03T04:08:56.516Z,1028.64
2023-02-03T04:10:56.499Z,1028.64
2023-02-03T04:12:56.530Z,1028.64
2023-02-03T04:14:56.508Z,1028.64
2023-02-03T04:16:56.518Z,1028.55
2023-02-03T04:18:56.490Z,1028.42
2023-02-03T04:20:56.503Z,1028.42
2023-02-03T04:22:57.581Z,1028.26
2023-02-03T04:24:56.495Z,1028.25
2023-02-03T04:26:56.513Z,1028.19
2023-02-03T04:28:56.613Z,1028.06
2023-02-03T04:30:57.800Z,1028.06
2023-02-03T04:32:56.505Z,1028.18
2023-02-03T04:34:56.472Z,1028.15
2023-02-03T04:36:56.571Z,1028.15
2023-02-03T04:38:56.509Z,1028.15
2023-02-03T04:40:56.511Z,1028.14
2023-02-03T04:42:56.541Z,1028.09
2023-02-03T04:44:56.526Z,1028.13
2023-02-03T04:46:56.498Z,1028.13
2023-02-03T04:48:56.490Z,1028.13
2023-02-03T04:50:56.565Z,1028.13
2023-02-03T04:52:56.510Z,1028.18
2023-02-03T04:54:56.526Z,1028.11
2023-02-03T04:56:56.512Z,1028.10
2023-02-03T04:58:56.494Z,1028.10
2023-02-03T05:00:56.551Z,1028.03
2023-02-03T05:02:56.574Z,1027.94
2023-02-03T05:04:56.546Z,1027.75
2023-02-03T05:06:56.503Z,1027.75
2023-02-03T05:08:56.493Z,1027.74
2023-02-03T05:11:26.669Z,1027.68
2023-02-03T05:13:26.573Z,1027.77
2023-02-03T05:15:26.523Z,1027.82
2023-02-03T05:17:26.533Z,1027.86
2023-02-03T05:19:26.549Z,1027.94
2023-02-03T05:21:26.595Z,1027.94
2023-02-03T05:23:26.528Z,1027.82
2023-02-03T05:25:26.556Z,1027.86
2023-02-03T05:27:26.523Z,1027.82
2023-02-03T05:29:26.711Z,1027.82
2023-02-03T05:31:26.545Z,1027.82
2023-02-03T05:33:26.722Z,1027.81
2023-02-03T05:35:26.515Z,1027.79
2023-02-03T05:37:26.609Z,1028.01
2023-02-03T05:39:26.543Z,1028.01
2023-02-03T05:41:26.571Z,1028.04
2023-02-03T05:43:26.728Z,1028.15
2023-02-03T05:45:26.645Z,1028.14
2023-02-03T05:49:26.575Z,1028.13
2023-02-03T05:51:26.673Z,1028.03
2023-02-03T05:53:26.572Z,1027.94
2023-02-03T05:55:26.722Z,1027.98
2023-02-03T05:57:26.609Z,1028.01
2023-02-03T05:59:26.581Z,1028.01
2023-02-03T06:01:26.560Z,1027.92
2023-02-03T06:03:26.625Z,1027.89
2023-02-03T06:05:26.583Z,1027.97
2023-02-03T06:09:26.588Z,1028.01
2023-02-03T06:13:26.580Z,1028.24
2023-02-03T06:15:26.624Z,1028.22
2023-02-03T06:19:26.523Z,1028.38
2023-02-03T06:21:37.252Z,1028.52
2023-02-03T06:23:37.217Z,1028.57
2023-02-03T06:25:37.242Z,1028.59
2023-02-03T06:27:37.325Z,1028.59
2023-02-03T06:29:37.217Z,1028.59
2023-02-03T06:31:37.453Z,1028.49
2023-02-03T06:33:37.235Z,1028.30
2023-02-03T06:35:37.352Z,1028.22
2023-02-03T06:37:37.246Z,1028.22
2023-02-03T06:39:37.262Z,1028.10
2023-02-03T06:41:37.261Z,1028.02
2023-02-03T06:43:37.252Z,1027.97
2023-02-03T06:45:37.290Z,1027.97
2023-02-03T06:47:37.264Z,1027.97
2023-02-03T06:49:37.246Z,1027.89
2023-02-03T06:51:37.294Z,1027.89
2023-02-03T06:53:37.243Z,1027.79
2023-02-03T06:55:37.286Z,1027.79
2023-02-03T06:57:37.304Z,1027.76
2023-02-03T06:59:37.319Z,1027.77
2023-02-03T07:01:37.288Z,1027.67
2023-02-03T07:03:37.235Z,1027.55
2023-02-03T07:05:37.280Z,1027.55
2023-02-03T07:07:37.263Z,1027.51
2023-02-03T07:09:37.315Z,1027.44
2023-02-03T07:11:37.255Z,1027.41
2023-02-03T07:13:37.273Z,1027.41
2023-02-03T07:15:37.372Z,1027.57
2023-02-03T07:17:37.292Z,1027.57
2023-02-03T07:19:37.323Z,1027.47
2023-02-03T07:21:37.292Z,1027.42
2023-02-03T07:23:37.289Z,1027.42
2023-02-03T07:25:37.305Z,1027.34
2023-02-03T07:27:37.339Z,1027.45
2023-02-03T07:29:37.262Z,1027.47
2023-02-03T07:31:37.362Z,1027.47
2023-02-03T07:33:37.261Z,1027.47
2023-02-03T07:35:37.321Z,1027.61
2023-02-03T07:38:07.289Z,1027.75
2023-02-03T07:40:07.256Z,1027.80
2023-02-03T07:42:07.306Z,1027.80
2023-02-03T07:44:07.285Z,1027.88
2023-02-03T07:46:07.336Z,1027.88
2023-02-03T07:48:07.254Z,1028.07
2023-02-03T07:50:07.287Z,1028.17
2023-02-03T07:52:07.305Z,1028.17
2023-02-03T07:54:07.390Z,1028.21
2023-02-03T07:56:07.274Z,1028.26
2023-02-03T07:58:07.302Z,1028.26
2023-02-03T08:00:07.305Z,1028.20
2023-02-03T08:02:07.383Z,1028.20
2023-02-03T08:04:07.294Z,1028.33
2023-02-03T08:06:07.275Z,1028.30
2023-02-03T08:08:07.321Z,1028.30
2023-02-03T08:10:07.324Z,1028.30
2023-02-03T08:12:07.263Z,1028.21
2023-02-03T08:14:07.277Z,1028.21
2023-02-03T08:16:07.309Z,1028.17
2023-02-03T08:18:07.300Z,1028.30
2023-02-03T08:20:07.346Z,1028.30
2023-02-03T08:22:07.287Z,1028.28
2023-02-03T08:24:07.283Z,1028.21
2023-02-03T08:26:07.312Z,1028.24
2023-02-03T08:28:07.435Z,1028.24
2023-02-03T08:30:07.312Z,1028.24
2023-02-03T08:32:07.368Z,1028.14
2023-02-03T08:34:07.297Z,1028.17
2023-02-03T08:36:07.304Z,1028.20
2023-02-03T08:38:07.319Z,1028.17
2023-02-03T08:40:07.324Z,1028.17
2023-02-03T08:42:07.310Z,1028.29
2023-02-03T08:44:07.327Z,1028.34
2023-02-03T08:46:07.433Z,1028.28
2023-02-03T08:48:07.345Z,1028.28
2023-02-03T08:50:07.307Z,1028.27
2023-02-03T08:52:07.327Z,1028.29
2023-02-03T08:54:07.342Z,1028.29
2023-02-03T08:56:07.352Z,1028.06
2023-02-03T08:58:07.348Z,1028.06
2023-02-03T09:00:07.285Z,1027.98
2023-02-03T09:02:07.323Z,1028.05
2023-02-03T09:04:07.419Z,1028.19
2023-02-03T09:06:07.339Z,1028.12
2023-02-03T09:08:07.336Z,1028.12
2023-02-03T09:10:07.377Z,1028.15
2023-02-03T09:12:07.330Z,1028.14
2023-02-03T09:14:07.499Z,1028.16
2023-02-03T09:16:07.377Z,1028.16
2023-02-03T09:18:07.409Z,1028.22
2023-02-03T09:20:07.410Z,1028.17
2023-02-03T09:22:07.469Z,1028.15
2023-02-03T09:24:07.346Z,1028.13
2023-02-03T09:26:07.369Z,1028.13
2023-02-03T09:28:37.338Z,1028.11
2023-02-03T09:30:37.433Z,1028.11
2023-02-03T09:32:37.332Z,1028.36
2023-02-03T09:34:37.316Z,1028.36
2023-02-03T09:36:37.351Z,1028.35
2023-02-03T09:38:37.410Z,1028.27
2023-02-03T09:40:37.333Z,1028.27
2023-02-03T09:42:37.429Z,1028.32
2023-02-03T09:44:37.383Z,1028.32
2023-02-03T09:46:37.329Z,1028.32
2023-02-03T09:48:37.393Z,1028.32
2023-02-03T09:50:37.364Z,1028.27
2023-02-03T09:52:37.373Z,1028.27
2023-02-03T09:54:37.368Z,1028.27
2023-02-03T09:56:37.500Z,1028.27
2023-02-03T09:58:37.324Z,1028.27
2023-02-03T10:00:37.344Z,1028.19
2023-02-03T10:02:37.810Z,1028.26
2023-02-03T10:04:37.366Z,1028.29
2023-02-03T10:06:37.375Z,1028.20
2023-02-03T10:08:37.351Z,1028.20
2023-02-03T10:10:37.345Z,1028.05
2023-02-03T10:12:37.328Z,1028.14
2023-02-03T10:14:37.460Z,1028.14
2023-02-03T10:16:37.383Z,1028.14
2023-02-03T10:18:37.332Z,1028.13
2023-02-03T10:20:37.356Z,1028.24
2023-02-03T10:22:37.377Z,1028.24
2023-02-03T10:24:37.374Z,1028.27
2023-02-03T10:26:37.401Z,1028.27
2023-02-03T10:28:37.341Z,1028.24
2023-02-03T10:30:37.460Z,1028.31
2023-02-03T10:32:37.488Z,1028.32
2023-02-03T10:34:37.378Z,1028.26
2023-02-03T10:36:37.372Z,1028.26
2023-02-03T10:38:37.375Z,1028.30
2023-02-03T10:40:37.489Z,1028.27
2023-02-03T10:42:37.393Z,1028.15
2023-02-03T10:44:37.366Z,1028.15
2023-02-03T10:46:37.390Z,1028.03
2023-02-03T10:48:37.380Z,1028.03
2023-02-03T10:50:37.379Z,1028.20
2023-02-03T10:52:39.650Z,1028.20
2023-02-03T10:54:37.396Z,1028.20
2023-02-03T10:56:37.368Z,1028.20
2023-02-03T10:58:37.374Z,1028.12
2023-02-03T11:00:37.439Z,1028.12
2023-02-03T11:02:37.482Z,1028.03
2023-02-03T11:04:37.438Z,1028.03
2023-02-03T11:06:37.445Z,1027.92
2023-02-03T11:08:37.426Z,1028.00
2023-02-03T11:10:37.426Z,1027.76
2023-02-03T11:12:37.351Z,1027.76
2023-02-03T11:14:37.384Z,1027.76
2023-02-03T11:17:07.525Z,1027.82
2023-02-03T11:19:07.409Z,1027.80
2023-02-03T11:21:07.387Z,1027.61
2023-02-03T11:23:07.412Z,1027.61
2023-02-03T11:25:07.407Z,1027.57
2023-02-03T11:27:07.372Z,1027.38
2023-02-03T11:29:07.420Z,1027.38
2023-02-03T11:31:07.447Z,1027.55
2023-02-03T11:33:07.381Z,1027.55
2023-02-03T11:35:07.414Z,1027.57
2023-02-03T11:37:07.425Z,1027.57
2023-02-03T11:39:07.423Z,1027.54
2023-02-03T11:41:07.379Z,1027.57
2023-02-03T11:43:07.396Z,1027.57
2023-02-03T11:45:07.367Z,1027.54
2023-02-03T11:47:07.415Z,1027.38
2023-02-03T11:49:07.393Z,1027.47
2023-02-03T11:51:07.414Z,1027.47
2023-02-03T11:53:07.428Z,1027.39
2023-02-03T11:55:07.435Z,1027.39
2023-02-03T11:57:07.411Z,1027.24
2023-02-03T11:59:07.407Z,1027.16
2023-02-03T12:01:07.430Z,1027.16
2023-02-03T12:03:07.442Z,1027.09
2023-02-03T12:05:07.451Z,1027.05
2023-02-03T12:07:07.408Z,1026.92
2023-02-03T12:09:07.448Z,1026.76
2023-02-03T12:11:07.409Z,1026.76
2023-02-03T12:13:07.477Z,1026.73
2023-02-03T12:15:07.427Z,1026.84
2023-02-03T12:17:07.407Z,1026.84
2023-02-03T12:19:07.404Z,1026.84
2023-02-03T12:21:07.435Z,1026.80
2023-02-03T12:23:07.424Z,1026.63
2023-02-03T12:25:07.464Z,1026.69
2023-02-03T12:27:07.516Z,1026.64
2023-02-03T12:29:07.409Z,1026.64
2023-02-03T12:31:07.516Z,1026.46
2023-02-03T12:33:07.452Z,1026.46
2023-02-03T12:35:07.465Z,1026.36
2023-02-03T12:37:07.481Z,1026.26
2023-02-03T12:39:07.456Z,1026.26
2023-02-03T12:41:07.476Z,1026.38
2023-02-03T12:43:07.495Z,1026.45
2023-02-03T12:45:07.505Z,1026.29
2023-02-03T12:47:07.426Z,1026.29
2023-02-03T12:49:07.751Z,1026.31
2023-02-03T12:51:07.633Z,1026.31
2023-02-03T12:53:07.529Z,1026.27
2023-02-03T12:55:07.504Z,1026.28
2023-02-03T12:57:07.436Z,1026.28
2023-02-03T12:59:07.515Z,1026.28
2023-02-03T13:01:07.740Z,1026.34
2023-02-03T13:03:37.604Z,1026.29
2023-02-03T13:05:37.487Z,1026.36
2023-02-03T13:07:37.576Z,1026.38
2023-02-03T13:09:38.923Z,1026.38
2023-02-03T13:11:37.547Z,1026.38
2023-02-03T13:13:37.455Z,1026.44
2023-02-03T13:17:31.941Z,1026.31
2023-02-03T13:19:31.826Z,1026.31
2023-02-03T13:21:31.820Z,1026.10
2023-02-03T13:23:31.820Z,1026.13
2023-02-03T13:25:31.829Z,1026.21
2023-02-03T13:27:31.900Z,1026.21
2023-02-03T13:29:31.860Z,1026.21
2023-02-03T13:31:31.890Z,1026.21
2023-02-03T13:33:31.948Z,1026.13
2023-02-03T13:35:34.374Z,1026.04
2023-02-03T13:37:31.851Z,1026.04
2023-02-03T13:39:31.828Z,1026.04
2023-02-03T13:41:31.887Z,1026.04
2023-02-03T13:43:38.609Z,1025.85
2023-02-03T13:45:31.892Z,1025.85
2023-02-03T13:47:31.857Z,1025.85
2023-02-03T13:49:31.995Z,1025.85
2023-02-03T13:51:31.875Z,1025.86
2023-02-03T13:53:31.963Z,1025.87
2023-02-03T13:55:31.867Z,1025.87
2023-02-03T13:57:31.886Z,1025.87
2023-02-03T13:59:31.895Z,1025.94
2023-02-03T14:01:31.931Z,1026.01
2023-02-03T14:03:31.901Z,1026.05
2023-02-03T14:05:31.959Z,1026.13
2023-02-03T14:07:31.866Z,1026.13
2023-02-03T14:09:31.971Z,1026.18
2023-02-03T14:11:31.891Z,1026.24
2023-02-03T14:13:31.863Z,1026.08
2023-02-03T14:15:32.392Z,1026.08
2023-02-03T14:17:31.840Z,1026.13
2023-02-03T14:19:31.860Z,1026.13
2023-02-03T14:21:31.881Z,1026.17
2023-02-03T14:23:31.983Z,1026.10
2023-02-03T14:25:31.840Z,1026.10
2023-02-03T14:27:31.842Z,1026.07
2023-02-03T14:30:01.875Z,1026.07
2023-02-03T14:32:01.928Z,1025.98
2023-02-03T14:34:03.621Z,1025.96
2023-02-03T14:36:01.880Z,1025.96
2023-02-03T14:38:01.851Z,1025.96
2023-02-03T14:40:02.112Z,1025.96
2023-02-03T14:42:01.960Z,1026.01
2023-02-03T14:44:02.002Z,1025.96
2023-02-03T14:46:01.900Z,1025.96
2023-02-03T14:48:01.886Z,1025.88
2023-02-03T14:50:01.887Z,1025.88
2023-02-03T14:52:01.861Z,1025.99
2023-02-03T14:54:01.985Z,1025.99
2023-02-03T14:56:01.936Z,1025.99
2023-02-03T14:58:02.015Z,1026.20
2023-02-03T15:00:01.978Z,1026.20
2023-02-03T15:02:01.860Z,1026.13
2023-02-03T15:04:02.042Z,1026.13
2023-02-03T15:06:01.995Z,1025.97
2023-02-03T15:08:01.870Z,1025.95
2023-02-03T15:10:02.014Z,1025.95
2023-02-03T15:12:01.902Z,1025.96
2023-02-03T15:14:01.909Z,1025.96
2023-02-03T15:16:01.962Z,1025.91
2023-02-03T15:18:01.922Z,1026.02
2023-02-03T15:20:01.969Z,1026.02
2023-02-03T15:22:01.947Z,1026.02
2023-02-03T15:24:01.885Z,1026.05
2023-02-03T15:26:01.941Z,1026.05
2023-02-03T15:28:01.972Z,1026.05
2023-02-03T15:30:01.907Z,1026.13
2023-02-03T15:32:02.114Z,1026.13
2023-02-03T15:34:01.895Z,1026.07
2023-02-03T15:36:01.945Z,1026.31
2023-02-03T15:38:01.890Z,1026.27
2023-02-03T15:40:01.933Z,1026.27
2023-02-03T15:42:01.901Z,1026.27
2023-02-03T15:44:01.937Z,1026.30
2023-02-03T15:46:01.899Z,1026.31
2023-02-03T15:48:01.915Z,1026.23
2023-02-03T15:50:02.300Z,1026.23
2023-02-03T15:52:01.925Z,1026.16
2023-02-03T15:54:01.953Z,1026.13
2023-02-03T15:56:01.922Z,1026.15
2023-02-03T15:58:01.925Z,1026.11
2023-02-03T16:00:01.960Z,1026.11
2023-02-03T16:02:02.140Z,1026.10
2023-02-03T16:04:01.893Z,1026.20
2023-02-03T16:06:01.908Z,1026.20
2023-02-03T16:08:02.057Z,1026.20
2023-02-03T16:10:01.947Z,1026.20
2023-02-03T16:12:01.892Z,1026.23
2023-02-03T16:14:01.955Z,1026.23
2023-02-03T16:16:02.049Z,1026.23
2023-02-03T16:18:32.007Z,1026.26
2023-02-03T16:20:31.959Z,1026.26
2023-02-03T16:22:32.243Z,1026.26
2023-02-03T16:24:31.926Z,1026.26
2023-02-03T16:26:31.923Z,1026.26
2023-02-03T16:28:32.409Z,1026.25
2023-02-03T16:30:31.903Z,1026.25
2023-02-03T16:32:31.963Z,1026.25
2023-02-03T16:34:32.338Z,1026.25
2023-02-03T16:36:31.908Z,1026.27
2023-02-03T16:38:31.958Z,1026.27
2023-02-03T16:40:31.944Z,1026.27
2023-02-03T16:42:31.986Z,1026.27
2023-02-03T16:44:31.913Z,1026.35
2023-02-03T16:46:31.905Z,1026.35
2023-02-03T16:48:31.964Z,1026.05
2023-02-03T16:50:38.172Z,1026.05
2023-02-03T16:52:31.929Z,1026.27
2023-02-03T16:54:32.158Z,1026.27
2023-02-03T16:56:31.957Z,1026.27
2023-02-03T16:58:31.945Z,1026.27
2023-02-03T17:00:31.991Z,1026.27
2023-02-03T17:02:32.069Z,1026.27
2023-02-03T17:04:31.980Z,1026.33
2023-02-03T17:06:31.951Z,1026.33
2023-02-03T17:08:31.980Z,1026.33
2023-02-03T17:10:31.935Z,1026.33
2023-02-03T17:12:31.933Z,1026.23
2023-02-03T17:14:31.960Z,1026.23
2023-02-03T17:16:32.076Z,1026.11
2023-02-03T17:18:32.357Z,1026.11
2023-02-03T17:20:31.955Z,1026.11
2023-02-03T17:22:31.969Z,1026.26
2023-02-03T17:24:32.071Z,1026.26
2023-02-03T17:26:31.931Z,1026.28
2023-02-03T17:28:31.965Z,1026.28
2023-02-03T17:30:32.068Z,1026.19
2023-02-03T17:32:32.012Z,1026.42
2023-02-03T17:34:31.990Z,1026.36
2023-02-03T17:36:31.978Z,1026.39
2023-02-03T17:38:32.119Z,1026.39
2023-02-03T17:54:31.983Z,1026.24
2023-02-03T17:56:32.197Z,1026.24
2023-02-03T17:58:32.030Z,1026.24
2023-02-03T18:00:32.272Z,1026.36
2023-02-03T18:02:32.042Z,1026.37
2023-02-03T18:04:31.964Z,1026.27
2023-02-03T18:07:02.050Z,1026.27
2023-02-03T18:09:02.025Z,1026.37
2023-02-03T18:11:01.974Z,1026.37
2023-02-03T18:13:01.986Z,1026.45
2023-02-03T18:15:02.072Z,1026.40
2023-02-03T18:17:01.933Z,1026.40
2023-02-03T18:19:02.190Z,1026.32
2023-02-03T18:21:02.063Z,1026.40
2023-02-03T18:23:02.111Z,1026.40
2023-02-03T18:25:01.949Z,1026.40
2023-02-03T18:27:02.006Z,1026.55
2023-02-03T18:29:02.011Z,1026.52
2023-02-03T18:31:02.000Z,1026.53
2023-02-03T18:33:01.927Z,1026.63
2023-02-03T18:35:02.012Z,1026.63
2023-02-03T18:37:01.931Z,1026.63
2023-02-03T18:39:02.076Z,1026.81
2023-02-03T18:41:01.977Z,1026.76
2023-02-03T18:43:02.032Z,1026.74
2023-02-03T18:45:02.004Z,1026.74
2023-02-03T18:47:01.990Z,1026.73
2023-02-03T18:49:01.970Z,1026.73
2023-02-03T18:51:02.052Z,1026.80
2023-02-03T18:53:01.962Z,1026.80
2023-02-03T18:55:01.995Z,1026.78
2023-02-03T18:57:02.009Z,1026.79
2023-02-03T18:59:02.044Z,1026.71
2023-02-03T19:01:02.032Z,1026.62
2023-02-03T19:03:02.080Z,1026.62
2023-02-03T19:05:02.112Z,1026.62
2023-02-03T19:07:01.955Z,1026.70
2023-02-03T19:09:02.125Z,1026.67
2023-02-03T19:11:02.049Z,1026.63
2023-02-03T19:13:02.030Z,1026.63
2023-02-03T19:15:02.097Z,1026.66
2023-02-03T19:17:01.998Z,1026.69
2023-02-03T19:19:02.114Z,1026.62
2023-02-03T19:21:02.107Z,1026.62
2023-02-03T19:23:02.006Z,1026.68
2023-02-03T19:25:01.993Z,1026.76
2023-02-03T19:27:02.076Z,1026.76
2023-02-03T19:29:02.088Z,1026.76
2023-02-03T19:31:07.514Z,1026.76
2023-02-03T19:33:02.107Z,1026.76
2023-02-03T19:35:01.988Z,1026.74
2023-02-03T19:37:02.016Z,1026.74
2023-02-03T19:39:02.134Z,1026.85
2023-02-03T19:41:02.093Z,1026.85
2023-02-03T19:43:02.095Z,1026.77
2023-02-03T19:45:02.129Z,1026.77
2023-02-03T19:47:02.073Z,1026.70
2023-02-03T19:49:02.086Z,1026.80
2023-02-03T19:51:02.251Z,1026.80
2023-02-03T19:53:02.169Z,1026.73
2023-02-03T19:55:02.125Z,1026.83
2023-02-03T19:57:02.028Z,1026.86
2023-02-03T19:59:32.109Z,1026.89
2023-02-03T20:01:32.130Z,1026.88
2023-02-03T20:03:32.119Z,1026.88
2023-02-03T20:05:32.148Z,1026.97
2023-02-03T20:07:32.138Z,1026.81
2023-02-03T20:09:32.108Z,1026.94
2023-02-03T20:11:33.844Z,1026.94
2023-02-03T20:13:32.126Z,1026.94
2023-02-03T20:15:32.091Z,1026.96
2023-02-03T20:17:32.068Z,1026.93
2023-02-03T20:19:19.416Z,1027.03
2023-02-03T20:21:19.419Z,1027.03
2023-02-03T20:23:19.394Z,1027.04
2023-02-03T20:25:19.502Z,1027.04
2023-02-03T20:27:19.354Z,1027.11
2023-02-03T20:29:19.489Z,1027.13
2023-02-03T20:31:20.651Z,1027.13
2023-02-03T20:33:19.471Z,1027.17
2023-02-03T20:35:19.374Z,1027.17
2023-02-03T20:37:19.497Z,1027.17
2023-02-03T20:39:19.503Z,1027.25
2023-02-03T20:41:19.514Z,1027.25
2023-02-03T20:43:19.542Z,1027.39
2023-02-03T20:45:19.471Z,1027.37
2023-02-03T20:47:19.425Z,1027.40
2023-02-03T20:49:19.407Z,1027.47
2023-02-03T20:51:19.445Z,1027.47
2023-02-03T20:53:19.852Z,1027.47
2023-02-03T20:55:19.504Z,1027.24
2023-02-03T20:57:19.536Z,1027.23
2023-02-03T20:59:19.495Z,1027.23
2023-02-03T21:01:19.481Z,1027.12
2023-02-03T21:03:49.452Z,1027.15
2023-02-03T21:05:49.462Z,1027.15
2023-02-03T21:07:49.469Z,1027.25
2023-02-03T21:09:49.472Z,1027.25
2023-02-03T21:11:49.487Z,1027.28
2023-02-03T21:13:49.540Z,1027.35
2023-02-03T21:15:49.464Z,1027.26
2023-02-03T21:17:49.414Z,1027.29
2023-02-03T21:19:49.492Z,1027.29
2023-02-03T21:21:49.491Z,1027.18
2023-02-03T21:23:49.551Z,1027.29
2023-02-03T21:25:49.542Z,1027.32
2023-02-03T21:27:49.591Z,1027.32
2023-02-03T21:29:49.433Z,1027.20
2023-02-03T21:31:49.479Z,1027.23
2023-02-03T21:33:49.491Z,1027.23
2023-02-03T21:35:49.502Z,1027.28
2023-02-03T21:37:49.480Z,1027.28
2023-02-03T21:39:49.528Z,1027.37
2023-02-03T21:41:49.584Z,1027.37
2023-02-03T21:43:49.412Z,1027.42
2023-02-03T21:45:49.493Z,1027.42
2023-02-03T21:47:49.466Z,1027.42
2023-02-03T21:49:49.449Z,1027.42
2023-02-03T21:51:49.496Z,1027.49
2023-02-03T21:53:49.527Z,1027.49
2023-02-03T21:55:49.540Z,1027.49
2023-02-03T21:57:49.420Z,1027.54
2023-02-03T21:59:49.555Z,1027.65
2023-02-03T22:01:49.486Z,1027.71
2023-02-03T22:03:49.464Z,1027.75
2023-02-03T22:05:49.487Z,1027.75
2023-02-03T22:07:49.516Z,1027.72
2023-02-03T22:09:49.516Z,1027.72
2023-02-03T22:11:49.545Z,1028.01
2023-02-03T22:13:49.579Z,1028.02
2023-02-03T22:15:49.459Z,1028.02
2023-02-03T22:17:49.421Z,1028.02
2023-02-03T22:19:49.498Z,1028.05
2023-02-03T22:21:49.511Z,1028.05
2023-02-03T22:23:49.582Z,1028.05
2023-02-03T22:25:49.567Z,1028.04
2023-02-03T22:27:50.172Z,1028.04
2023-02-03T22:29:49.603Z,1028.16
2023-02-03T22:31:49.530Z,1028.19
2023-02-03T22:33:49.428Z,1028.19
2023-02-03T22:35:49.509Z,1028.33
2023-02-03T22:37:49.479Z,1028.24
2023-02-03T22:39:49.439Z,1028.34
2023-02-03T22:41:49.440Z,1028.34
2023-02-03T22:43:49.430Z,1028.34
2023-02-03T22:45:49.503Z,1028.20
2023-02-03T22:47:49.463Z,1028.25
2023-02-03T22:49:49.431Z,1028.18
2023-02-03T22:51:49.428Z,1028.18
2023-02-03T22:54:19.467Z,1028.04
2023-02-03T22:56:19.418Z,1028.04
2023-02-03T22:58:19.468Z,1028.08
2023-02-03T23:00:19.450Z,1028.05
2023-02-03T23:02:19.448Z,1027.95
2023-02-03T23:04:19.495Z,1027.98
2023-02-03T23:06:19.527Z,1027.98
2023-02-03T23:08:19.438Z,1027.98
2023-02-03T23:10:19.425Z,1028.14
2023-02-03T23:12:19.596Z,1028.14
2023-02-03T23:14:19.587Z,1028.26
2023-02-03T23:16:19.465Z,1028.26
2023-02-03T23:18:19.435Z,1028.21
2023-02-03T23:20:19.437Z,1028.24
2023-02-03T23:22:19.440Z,1028.26
2023-02-03T23:24:19.449Z,1028.26
2023-02-03T23:26:19.466Z,1028.26
2023-02-03T23:28:19.529Z,1028.21
2023-02-03T23:30:19.488Z,1028.28
2023-02-03T23:32:19.448Z,1028.26
2023-02-03T23:34:19.477Z,1028.26
2023-02-03T23:36:19.441Z,1028.36
2023-02-03T23:38:19.484Z,1028.40
2023-02-03T23:40:19.492Z,1028.55
2023-02-03T23:42:19.446Z,1028.55
2023-02-03T23:44:19.468Z,1028.55
2023-02-03T23:46:19.531Z,1028.40
2023-02-03T23:48:19.481Z,1028.40
2023-02-03T23:50:19.514Z,1028.33
2023-02-03T23:52:19.450Z,1028.33
2023-02-03T23:54:19.481Z,1028.37
2023-02-03T23:56:19.463Z,1028.40
2023-02-03T23:58:19.589Z,1028.40
